Portada
METAR-TAF:

METAR-TAF

Aeropuertos :

Base Aérea de Armilla

Granada, España

latitud: 37-08N, longitud: 003-38-08W, altitud: 700 m

Observación

El informe se hizo hace 1 hora y 9 minutos, a las 08:00 UTC
Viento 4 kt del sur
Temperatura 8°C
Humedad 93%
Presión 1016 hPa
Visibilidad 10 km o más
Escasas nubes a una altura de 7000 ft

METAR: LEGA 170800Z 18004KT 9999 FEW070 08/07 Q1016

Hora: 10:09 (09:09 UTC)

Pronóstico

El informe se hizo hace 1 hora y 9 minutos, a las 08:00 UTC
Pronóstico válido del 17 a las 09 UTC al 17 a las 18 UTC
Viento 2 kt con dirección variable
Visibilidad 10 km o más
Escasas nubes a una altura de 4000 ft
Evolucionando progresivamente
del 17 a las 12 UTC al 17 a las 15 UTC
Viento 10 kt del sur

TAF: LEGA 170800Z 1709/1718 VRB02KT 9999 FEW040 BECMG 1712/1715 17010KT

Observaciones y pronósticos meteorológicos de más de 4000 aeropuertos (mensajes METAR y TAF).

Los puntos amarillos y rojos representan las estaciones disponibles.

Ponga el ratón en el punto deseado para ver el nombre de la estación.

Haga clic para ver las observaciones y los pronósticos meteorológicos.

Para cambiar el mapa : haga clic en los botones verdes con una cruz de color negro para hacer un zoom, en el botón verde con un guión para alejar o en las flechas verdes para mapas adyacentes.


METAR-TAF: